Terminal Aerodrome Forecast
Issued by NWS Newport/Morehead City, NC

Home | Current Version | Previous Version | Graphics & Text | Print | Product List | Glossary On
Versions: 1 2 3 4 5 6 7 8 9 10 11 12 13 14 15 16 17 18
000
FTUS42 KMHX 211140
TAFEWN
TAF
KEWN 211140Z 2112/2212 17006KT P6SM SCT004
      TEMPO 2112/2113 3SM BR OVC004
     FM211400 20007KT P6SM FEW250
     FM220800 20005KT 3SM BR SCT006=

USA.gov is the U.S. government's official web portal to all federal, state and local government web resources and services.